Time;durP1;ratioP1;P1;durP2;ratioP2;P2;SDS_P1;SDS_P2;PMS_P1;PMS_P2;Temp;Humidity;BMP_temperature;BMP_pressure;BME280_temperature;BME280_humidity;BME280_pressure;Samples;Min_cycle;Max_cycle;Signal;HPM_P1;HPM_P2
2022/04/09 00:00:09;;;;;;;37.08;21.87;;;;;;;8.10;72.32;99899.88;1784861;80;20880;-79
2022/04/09 00:02:34;;;;;;;46.40;26.10;;;;;;;8.10;72.20;99900.70;1784377;80;20904;-82
2022/04/09 00:05:01;;;;;;;48.58;26.12;;;;;;;8.09;72.02;99898.18;1783882;80;20948;-82
2022/04/09 00:07:30;;;;;;;52.33;30.30;;;;;;;8.05;71.82;99892.33;1783607;80;20936;-82
2022/04/09 00:09:57;;;;;;;54.70;31.17;;;;;;;8.04;71.72;99895.02;1784820;80;21267;-83
2022/04/09 00:12:24;;;;;;;57.75;33.35;;;;;;;8.03;71.57;99894.66;1784059;80;21394;-83
2022/04/09 00:14:51;;;;;;;53.98;28.95;;;;;;;8.02;71.42;99896.88;1784622;80;20928;-81
2022/04/09 00:17:20;;;;;;;49.25;30.43;;;;;;;8.00;71.29;99900.88;1785458;80;20932;-83
2022/04/09 00:19:47;;;;;;;55.75;31.50;;;;;;;7.97;71.19;99900.25;1784201;80;20999;-82
2022/04/09 00:22:15;;;;;;;45.65;29.10;;;;;;;7.92;71.19;99895.78;1784239;80;21181;-83
2022/04/09 00:24:43;;;;;;;44.70;27.95;;;;;;;7.87;71.19;99893.45;1783942;80;20896;-82
2022/04/09 00:27:10;;;;;;;43.87;27.15;;;;;;;7.84;71.18;99893.62;1783669;80;20983;-83
2022/04/09 00:29:37;;;;;;;51.80;26.73;;;;;;;7.81;71.15;99884.20;1783526;80;20956;-83
2022/04/09 00:32:07;;;;;;;44.20;27.15;;;;;;;7.82;71.19;99891.56;1783574;80;20935;-82
2022/04/09 00:34:34;;;;;;;55.28;29.25;;;;;;;7.82;71.18;99892.40;1783603;80;21168;-81
2022/04/09 00:37:05;;;;;;;50.67;30.92;;;;;;;7.81;71.04;99894.65;1783641;80;20881;-81
2022/04/09 00:39:32;;;;;;;52.03;28.25;;;;;;;7.79;70.99;99898.28;1783723;80;20888;-83
2022/04/09 00:42:00;;;;;;;45.85;26.95;;;;;;;7.76;70.88;99903.23;1784044;80;20987;-81
2022/04/09 00:44:27;;;;;;;37.63;21.77;;;;;;;7.72;70.79;99906.12;1786064;80;20952;-83
2022/04/09 00:46:56;;;;;;;31.85;18.20;;;;;;;7.66;70.72;99909.44;1783603;80;21381;-84
2022/04/09 00:49:24;;;;;;;25.32;16.73;;;;;;;7.61;70.76;99914.11;1783817;80;21356;-82
2022/04/09 00:51:51;;;;;;;28.87;16.70;;;;;;;7.58;70.85;99914.30;1783608;80;20903;-82
2022/04/09 00:54:19;;;;;;;25.08;14.38;;;;;;;7.54;70.96;99915.88;1778617;80;20952;-83
2022/04/09 00:56:45;;;;;;;28.67;16.37;;;;;;;7.51;71.03;99919.95;1783620;80;20944;-83
2022/04/09 00:59:12;;;;;;;31.37;16.65;;;;;;;7.46;71.15;99922.36;1784487;80;21730;-82
2022/04/09 01:01:41;;;;;;;20.65;12.75;;;;;;;7.43;71.14;99934.76;1784076;80;20889;-82
2022/04/09 01:04:11;;;;;;;18.70;11.03;;;;;;;7.36;71.14;99931.66;1783703;80;21420;-82
2022/04/09 01:06:42;;;;;;;19.98;10.88;;;;;;;7.31;71.23;99941.97;1784604;80;20931;-82
2022/04/09 01:09:08;;;;;;;14.03;9.13;;;;;;;7.26;71.34;99937.85;1783107;80;20924;-82
2022/04/09 01:11:36;;;;;;;13.83;9.70;;;;;;;7.24;71.47;99942.78;1783682;80;21225;-83
2022/04/09 01:14:05;;;;;;;13.00;8.38;;;;;;;7.22;71.60;99946.77;1729928;80;21361;-80
2022/04/09 01:16:35;;;;;;;11.00;7.42;;;;;;;7.19;71.74;99948.27;1783541;80;20876;-81
2022/04/09 01:19:03;;;;;;;8.18;6.30;;;;;;;7.16;71.91;99943.67;1783978;80;21425;-83
2022/04/09 01:21:33;;;;;;;12.33;6.05;;;;;;;7.13;72.09;99946.47;1784218;80;21365;-83
2022/04/09 01:24:04;;;;;;;8.85;6.25;;;;;;;7.11;72.23;99952.23;1783489;80;21372;-81
2022/04/09 01:26:32;;;;;;;9.23;5.70;;;;;;;7.10;72.31;99967.52;1784619;80;20931;-79
2022/04/09 01:29:01;;;;;;;8.43;5.67;;;;;;;7.08;72.34;99970.20;1784404;80;20923;-83
2022/04/09 01:31:29;;;;;;;7.62;4.78;;;;;;;7.05;72.45;99971.68;1783413;80;20979;-83
2022/04/09 01:33:55;;;;;;;6.80;4.42;;;;;;;7.02;72.59;99964.02;1783648;80;21401;-82
2022/04/09 01:36:22;;;;;;;5.90;4.40;;;;;;;6.99;72.74;99958.98;1783841;80;21218;-82
2022/04/09 01:38:49;;;;;;;5.50;4.53;;;;;;;6.97;72.87;99970.78;1783730;80;20999;-83
2022/04/09 01:41:16;;;;;;;4.30;3.90;;;;;;;6.95;73.03;99966.59;1783755;80;20896;-83
2022/04/09 01:43:45;;;;;;;7.37;4.85;;;;;;;6.92;73.19;99968.91;1779045;80;21390;-82
2022/04/09 01:46:12;;;;;;;5.50;4.50;;;;;;;6.90;73.31;99972.53;1783837;80;20971;-84
2022/04/09 01:48:41;;;;;;;4.85;3.98;;;;;;;6.87;73.43;99974.84;1779083;80;20930;-80
2022/04/09 01:51:08;;;;;;;8.40;4.62;;;;;;;6.87;73.53;99987.88;1775576;80;21457;-81
2022/04/09 01:53:36;;;;;;;3.95;3.55;;;;;;;6.87;73.59;99987.02;1775403;80;20931;-82
2022/04/09 01:56:03;;;;;;;5.65;3.87;;;;;;;6.85;73.62;99976.23;1775285;80;20932;-82
2022/04/09 01:58:33;;;;;;;3.80;3.25;;;;;;;6.82;73.68;99988.57;1778738;80;20908;-82
2022/04/09 02:01:01;;;;;;;5.85;4.10;;;;;;;6.81;73.81;99981.69;1775434;80;21137;-83
2022/04/09 02:03:30;;;;;;;9.85;6.90;;;;;;;6.78;73.88;99982.70;1775255;80;21428;-83
2022/04/09 02:05:57;;;;;;;9.95;8.00;;;;;;;6.79;73.93;99992.19;1775522;80;20999;-82
2022/04/09 02:08:29;;;;;;;9.30;7.87;;;;;;;6.79;74.01;99990.89;1775380;80;20940;-83
2022/04/09 02:10:57;;;;;;;6.42;4.58;;;;;;;6.79;74.07;99993.49;1777819;80;20900;-82
2022/04/09 02:13:26;;;;;;;4.15;3.17;;;;;;;6.80;74.08;99996.49;1775430;80;21023;-83
2022/04/09 02:15:54;;;;;;;3.95;3.25;;;;;;;6.81;74.15;99990.81;1775299;80;20928;-82
2022/04/09 02:18:24;;;;;;;5.70;3.17;;;;;;;6.82;74.17;99986.80;1775110;80;20925;-83
2022/04/09 02:20:53;;;;;;;3.50;3.20;;;;;;;6.83;74.21;99995.02;1775332;80;21374;-83
2022/04/09 02:23:22;;;;;;;3.27;3.00;;;;;;;6.83;74.12;99991.10;1775495;80;21307;-82
2022/04/09 02:25:50;;;;;;;5.35;3.55;;;;;;;6.83;74.12;99993.71;1775405;80;21282;-82
2022/04/09 02:28:17;;;;;;;6.35;3.30;;;;;;;6.85;74.14;99998.84;1775569;80;21460;-81
2022/04/09 02:30:44;;;;;;;3.80;2.83;;;;;;;6.84;74.22;99994.54;1775356;80;20888;-82
2022/04/09 02:33:14;;;;;;;6.55;4.92;;;;;;;6.82;74.27;100004.20;1774741;80;20904;-83
2022/04/09 02:35:42;;;;;;;17.67;12.33;;;;;;;6.82;74.39;99999.83;1775724;80;20912;-82
2022/04/09 02:38:11;;;;;;;4.55;2.98;;;;;;;6.81;74.46;99998.63;1776081;80;21260;-81
2022/04/09 02:40:39;;;;;;;3.70;3.37;;;;;;;6.80;74.50;99999.53;1775840;80;20885;-83
2022/04/09 02:43:07;;;;;;;3.37;3.08;;;;;;;6.79;74.56;99994.80;1775645;80;20932;-83
2022/04/09 02:45:34;;;;;;;3.67;3.20;;;;;;;6.79;74.64;99986.14;1775333;80;20904;-83
2022/04/09 02:48:04;;;;;;;4.50;3.50;;;;;;;6.78;74.74;99998.78;1777522;80;20975;-82
2022/04/09 02:50:33;;;;;;;3.85;3.12;;;;;;;6.78;74.77;100005.30;1783853;80;21143;-84
2022/04/09 02:53:04;;;;;;;5.50;3.80;;;;;;;6.78;74.84;100018.33;1784737;80;20948;-80
2022/04/09 02:55:31;;;;;;;3.52;3.22;;;;;;;6.77;74.89;100014.88;1785639;80;20852;-83
2022/04/09 02:58:00;;;;;;;5.12;2.95;;;;;;;6.76;74.89;100024.08;1783993;80;20904;-82
2022/04/09 03:00:30;;;;;;;5.87;3.17;;;;;;;6.76;74.89;100031.89;1784219;80;20896;-83
2022/04/09 03:02:57;;;;;;;9.30;6.45;;;;;;;6.77;74.93;100041.41;1783996;80;21286;-82
2022/04/09 03:05:26;;;;;;;10.23;8.40;;;;;;;6.74;74.88;100037.20;1783746;80;20890;-78
2022/04/09 03:07:52;;;;;;;4.37;3.98;;;;;;;6.74;74.89;100033.77;1783995;80;21354;-83
2022/04/09 03:10:19;;;;;;;3.12;2.85;;;;;;;6.74;74.91;100033.30;1784063;80;20892;-82
2022/04/09 03:12:47;;;;;;;5.35;3.60;;;;;;;6.77;74.90;100037.50;1784037;80;20876;-83
2022/04/09 03:15:17;;;;;;;3.85;3.45;;;;;;;6.76;74.92;100037.97;1784007;80;21019;-83
2022/04/09 03:17:45;;;;;;;8.25;4.47;;;;;;;6.78;74.93;100040.03;1783778;80;20880;-84
2022/04/09 03:20:12;;;;;;;4.83;4.30;;;;;;;6.80;74.93;100049.05;1784187;80;21350;-84
2022/04/09 03:22:47;;;;;;;7.50;5.00;;;;;;;6.80;74.89;100047.31;1783889;80;20955;-85
2022/04/09 03:25:17;;;;;;;12.45;9.48;;;;;;;6.81;74.90;100044.23;1783869;80;20971;-83
2022/04/09 03:27:45;;;;;;;20.45;13.90;;;;;;;6.83;74.83;100045.00;1784737;80;21113;-82
2022/04/09 03:30:13;;;;;;;5.45;4.12;;;;;;;6.81;74.79;100046.38;1784155;80;21438;-86
2022/04/09 03:32:40;;;;;;;4.90;3.27;;;;;;;6.83;74.83;100050.20;1784224;80;20974;-85
2022/04/09 03:35:10;;;;;;;3.17;2.58;;;;;;;6.85;74.83;100057.02;1784334;80;21081;-84
2022/04/09 03:37:37;;;;;;;4.28;2.85;;;;;;;6.89;74.80;100054.23;1786770;80;21212;-80
2022/04/09 03:40:07;;;;;;;5.22;2.60;;;;;;;6.92;74.78;100053.62;1783997;80;21438;-84
2022/04/09 03:42:34;;;;;;;2.55;2.08;;;;;;;6.97;74.74;100062.02;1783827;80;20927;-82
2022/04/09 03:45:01;;;;;;;5.12;3.12;;;;;;;7.06;74.79;100061.98;1783955;80;20924;-82
2022/04/09 03:47:34;;;;;;;2.85;2.42;;;;;;;7.21;74.72;100066.84;1783862;80;21401;-84
2022/04/09 03:50:03;;;;;;;2.77;1.98;;;;;;;7.38;74.34;100061.97;1783517;80;21404;-83
2022/04/09 03:52:30;;;;;;;3.35;2.47;;;;;;;7.58;74.04;100055.20;1785107;80;21905;-83
2022/04/09 03:54:57;;;;;;;2.58;2.25;;;;;;;7.80;73.85;100052.20;1784301;80;20998;-84
2022/04/09 03:57:26;;;;;;;2.00;1.90;;;;;;;8.03;73.18;100063.08;1754173;80;20901;-84
2022/04/09 03:59:55;;;;;;;3.05;2.10;;;;;;;8.21;72.46;100063.30;1783665;80;20908;-84
2022/04/09 04:02:23;;;;;;;2.47;1.95;;;;;;;8.36;71.77;100061.55;1784690;80;20955;-84
2022/04/09 04:04:51;;;;;;;2.75;2.25;;;;;;;8.47;71.27;100055.25;1784165;80;21119;-85
2022/04/09 04:07:23;;;;;;;2.55;2.35;;;;;;;8.58;70.76;100059.83;1783746;80;20940;-83
2022/04/09 04:09:51;;;;;;;2.33;2.00;;;;;;;8.68;70.29;100069.25;1754290;80;20983;-84
2022/04/09 04:12:18;;;;;;;3.10;2.72;;;;;;;8.76;69.89;100072.24;1784131;80;20904;-83
2022/04/09 04:14:47;;;;;;;2.90;2.40;;;;;;;8.82;69.92;100065.30;1784260;80;21011;-84
2022/04/09 04:17:15;;;;;;;2.92;2.42;;;;;;;8.94;69.61;100065.03;1784178;80;21103;-83
2022/04/09 04:19:43;;;;;;;4.87;3.22;;;;;;;9.10;69.45;100066.22;1784395;80;20845;-82
2022/04/09 04:22:12;;;;;;;2.02;1.82;;;;;;;9.26;68.73;100062.16;1785346;80;20912;-80
2022/04/09 04:24:38;;;;;;;6.75;2.35;;;;;;;9.45;67.94;100065.29;1783839;80;20932;-84
2022/04/09 04:27:06;;;;;;;3.40;2.15;;;;;;;9.66;67.03;100078.76;1783500;80;20884;-84
2022/04/09 04:29:34;;;;;;;3.12;2.20;;;;;;;9.89;66.08;100084.27;1783555;80;21209;-82
2022/04/09 04:32:01;;;;;;;5.55;3.05;;;;;;;10.09;65.09;100082.95;1783682;80;20936;-85
2022/04/09 04:34:28;;;;;;;4.30;2.35;;;;;;;10.28;64.20;100092.58;1783559;80;20932;-83
2022/04/09 04:36:55;;;;;;;5.10;2.95;;;;;;;10.49;63.23;100077.22;1783850;80;20995;-84
2022/04/09 04:39:23;;;;;;;4.87;1.82;;;;;;;10.71;62.50;100083.11;1765769;80;21390;-83
2022/04/09 04:41:51;;;;;;;3.08;1.90;;;;;;;10.95;61.80;100096.79;1783539;80;21242;-83
2022/04/09 04:44:18;;;;;;;4.00;2.40;;;;;;;11.23;61.33;100095.69;1783514;80;20920;-84
2022/04/09 04:46:47;;;;;;;3.67;2.42;;;;;;;11.55;60.55;100085.48;1783519;80;20971;-83
2022/04/09 04:49:15;;;;;;;4.78;2.22;;;;;;;11.91;59.66;100081.13;1783208;80;20897;-83
2022/04/09 04:51:43;;;;;;;3.08;2.77;;;;;;;12.30;58.69;100076.96;1783539;80;20972;-82
2022/04/09 04:54:11;;;;;;;3.75;2.00;;;;;;;12.70;57.48;100081.31;1783629;80;21124;-83
2022/04/09 04:56:38;;;;;;;2.75;1.77;;;;;;;13.23;56.54;100090.73;1783659;80;20943;-84
2022/04/09 04:59:07;;;;;;;4.08;1.92;;;;;;;13.81;55.03;100089.16;1783591;80;20903;-84
2022/04/09 05:01:37;;;;;;;2.95;2.20;;;;;;;14.47;53.78;100088.94;1783586;80;20935;-85
2022/04/09 05:04:05;;;;;;;3.42;1.70;;;;;;;15.15;52.22;100084.95;1785187;80;20904;-82
2022/04/09 05:06:34;;;;;;;3.62;2.20;;;;;;;15.79;50.88;100096.91;1784195;80;21246;-83
2022/04/09 05:09:01;;;;;;;2.47;2.27;;;;;;;16.35;49.73;100093.02;1783905;80;20919;-85
2022/04/09 05:11:40;;;;;;;3.58;1.80;;;;;;;16.91;48.25;100098.46;1783799;80;21409;-84
2022/04/09 05:14:10;;;;;;;4.50;1.87;;;;;;;17.36;46.36;100095.88;1783439;80;20939;-84
2022/04/09 05:16:38;;;;;;;2.87;2.37;;;;;;;17.77;45.36;100094.13;1782931;80;20881;-84
2022/04/09 05:19:07;;;;;;;3.75;1.98;;;;;;;18.17;44.53;100087.53;1783914;80;21551;-86
2022/04/09 05:21:36;;;;;;;3.27;2.17;;;;;;;18.53;43.30;100078.97;1784006;80;21359;-85
2022/04/09 05:24:04;;;;;;;2.17;1.85;;;;;;;18.89;42.59;100070.05;1783699;80;20978;-84
2022/04/09 05:26:31;;;;;;;2.47;1.90;;;;;;;19.26;42.47;100063.05;1783637;80;20943;-85
2022/04/09 05:28:59;;;;;;;4.78;2.25;;;;;;;19.69;42.65;100058.48;1783658;80;20907;-85
2022/04/09 05:31:27;;;;;;;1.85;1.50;;;;;;;20.07;41.42;100065.48;1784183;80;21101;-84
2022/04/09 05:33:55;;;;;;;2.12;1.52;;;;;;;20.45;39.47;100063.95;1783868;80;21381;-83
2022/04/09 05:36:22;;;;;;;5.75;1.95;;;;;;;20.75;38.92;100060.73;1783884;80;20912;-86
2022/04/09 05:38:50;;;;;;;2.47;2.20;;;;;;;21.06;38.49;100060.77;1783744;80;20868;-84
2022/04/09 05:41:17;;;;;;;2.00;1.75;;;;;;;21.45;37.58;100062.57;1783856;80;21378;-85
2022/04/09 05:43:44;;;;;;;3.25;2.42;;;;;;;21.78;36.88;100062.34;1783917;80;21241;-86
2022/04/09 05:46:12;;;;;;;3.02;2.00;;;;;;;21.96;35.84;100060.70;1784186;80;20856;-85
2022/04/09 05:48:40;;;;;;;3.62;2.08;;;;;;;22.09;34.90;100063.59;1786017;80;21425;-85
2022/04/09 05:51:07;;;;;;;3.70;2.10;;;;;;;22.17;34.93;100055.51;1783982;80;20861;-85
2022/04/09 05:53:37;;;;;;;2.27;2.05;;;;;;;22.42;35.36;100044.09;1783975;80;20994;-85
2022/04/09 05:56:05;;;;;;;3.15;2.70;;;;;;;22.71;33.44;100036.58;1784230;80;21242;-84
2022/04/09 05:58:34;;;;;;;4.70;3.08;;;;;;;22.87;33.71;100046.23;1784717;80;20900;-85
2022/04/09 06:01:03;;;;;;;2.17;1.98;;;;;;;23.11;33.07;100049.14;1785983;80;20880;-86
2022/04/09 06:03:32;;;;;;;4.10;2.00;;;;;;;23.34;32.54;100059.70;1784174;80;20916;-85
2022/04/09 06:05:59;;;;;;;1.80;1.70;;;;;;;23.60;33.10;100056.97;1783990;79;20939;-83
2022/04/09 06:08:41;;;;;;;2.45;1.60;;;;;;;24.00;32.38;100066.22;1783488;80;20908;-83
2022/04/09 06:11:17;;;;;;;4.30;3.75;;;;;;;24.35;31.30;100070.83;1783947;80;21394;-84
2022/04/09 06:13:46;;;;;;;4.95;2.12;;;;;;;24.50;30.58;100072.06;1784100;80;20896;-85
2022/04/09 06:16:13;;;;;;;3.52;1.70;;;;;;;24.68;30.32;100069.72;1783977;80;21028;-86
2022/04/09 06:18:43;;;;;;;2.98;1.62;;;;;;;24.74;29.42;100066.23;1784070;80;20931;-83
2022/04/09 06:21:10;;;;;;;1.95;0.98;;;;;;;24.75;29.19;100065.22;1755997;80;21381;-85
2022/04/09 06:23:38;;;;;;;1.62;1.40;;;;;;;24.72;29.32;100059.41;1784130;80;20983;-86
2022/04/09 06:26:07;;;;;;;2.35;1.67;;;;;;;24.87;29.65;100056.08;1784077;80;20920;-85
2022/04/09 06:28:35;;;;;;;2.95;0.93;;;;;;;25.18;29.90;100060.13;1783824;80;21385;-84
2022/04/09 06:31:03;;;;;;;1.65;1.30;;;;;;;25.49;28.91;100061.48;1785524;80;20924;-82
2022/04/09 06:33:30;;;;;;;4.40;1.15;;;;;;;25.64;28.02;100061.61;1784825;80;21123;-85
2022/04/09 06:36:00;;;;;;;4.12;2.00;;;;;;;25.63;27.31;100068.03;1783996;80;20979;-86
2022/04/09 06:38:29;;;;;;;2.60;1.00;;;;;;;25.64;27.22;100067.51;1783999;80;21003;-84
2022/04/09 06:40:56;;;;;;;1.95;1.17;;;;;;;25.67;27.21;100065.75;1755716;80;20892;-85
2022/04/09 06:43:26;;;;;;;2.62;1.70;;;;;;;25.69;27.12;100070.92;1783249;80;20825;-84
2022/04/09 06:45:57;;;;;;;2.40;1.20;;;;;;;25.81;27.02;100062.55;1782178;80;21098;-83
2022/04/09 06:48:29;;;;;;;3.70;1.22;;;;;;;25.90;26.48;100066.75;1781135;80;20936;-84
2022/04/09 06:51:14;;;;;;;1.37;1.12;;;;;;;25.86;26.22;100066.81;1754431;80;20931;-85
2022/04/09 06:53:41;;;;;;;2.33;1.05;;;;;;;25.85;26.43;100051.70;1784980;80;20967;-84
2022/04/09 06:56:10;;;;;;;1.95;1.05;;;;;;;25.99;27.07;100050.73;1784065;80;20991;-86
2022/04/09 06:58:36;;;;;;;2.52;1.40;;;;;;;26.20;26.54;100052.88;1784331;80;21253;-84
2022/04/09 07:01:04;;;;;;;4.12;2.10;;;;;;;26.29;26.79;100054.31;1784230;80;20900;-86
2022/04/09 07:03:33;;;;;;;3.77;1.80;;;;;;;26.52;26.87;100056.53;1784036;80;21636;-84
2022/04/09 07:05:59;;;;;;;3.47;2.33;;;;;;;26.64;25.95;100064.83;1784011;80;20933;-87
2022/04/09 07:08:28;;;;;;;3.60;2.05;;;;;;;26.66;26.00;100060.89;1783866;80;20920;-84
2022/04/09 07:10:54;;;;;;;2.17;1.98;;;;;;;26.61;26.14;100066.09;1784364;80;21803;-86
2022/04/09 07:13:21;;;;;;;4.65;2.10;;;;;;;26.63;26.46;100057.78;1784345;80;20940;-84
2022/04/09 07:15:47;;;;;;;3.47;2.12;;;;;;;26.66;26.50;100047.44;1786451;80;21469;-86
2022/04/09 07:18:15;;;;;;;2.40;1.98;;;;;;;26.79;26.81;100037.66;1784088;80;20964;-84
2022/04/09 07:20:44;;;;;;;2.85;2.05;;;;;;;27.02;25.76;100043.89;1784035;80;20873;-86
2022/04/09 07:23:12;;;;;;;4.12;0.98;;;;;;;27.23;25.09;100046.80;1784167;80;20970;-84
2022/04/09 07:25:42;;;;;;;1.22;1.17;;;;;;;27.26;24.03;100052.59;1785169;80;21405;-85
2022/04/09 07:28:09;;;;;;;3.35;0.72;;;;;;;27.19;22.97;100046.89;1784461;80;20951;-84
2022/04/09 07:30:35;;;;;;;1.45;1.25;;;;;;;26.84;22.86;100040.02;1783896;80;21354;-83
2022/04/09 07:33:02;;;;;;;1.52;0.70;;;;;;;26.53;22.96;100051.48;1784305;80;20892;-85
2022/04/09 07:35:29;;;;;;;1.05;0.68;;;;;;;26.21;23.86;100050.48;1784561;80;21885;-87
2022/04/09 07:37:58;;;;;;;1.75;0.80;;;;;;;25.94;23.46;100059.91;1783687;80;20896;-84
2022/04/09 07:40:25;;;;;;;5.10;4.60;;;;;;;25.64;23.91;100053.56;1783865;80;20904;-85
2022/04/09 07:42:52;;;;;;;3.52;1.05;;;;;;;25.42;24.18;100058.79;1783810;80;21478;-84
2022/04/09 07:45:19;;;;;;;1.32;0.98;;;;;;;25.35;24.04;100052.58;1783858;80;21031;-84
2022/04/09 07:47:48;;;;;;;2.62;1.05;;;;;;;25.24;24.50;100043.26;1783716;80;21246;-85
2022/04/09 07:50:14;;;;;;;3.50;1.35;;;;;;;25.26;24.36;100043.89;1773712;80;20940;-85
2022/04/09 07:52:45;;;;;;;2.37;1.12;;;;;;;25.10;24.44;100038.83;1768247;80;20925;-85
2022/04/09 07:55:18;;;;;;;5.20;1.67;;;;;;;24.87;24.86;100039.17;1768495;81;20984;-85
2022/04/09 07:57:45;;;;;;;3.52;2.10;;;;;;;24.45;25.22;100035.62;1768625;81;20991;-82
2022/04/09 08:00:14;;;;;;;3.60;1.75;;;;;;;24.24;25.78;100036.53;1769683;81;21269;-83
2022/04/09 08:02:42;;;;;;;9.28;6.83;;;;;;;24.24;26.00;100033.33;1767933;81;20877;-84
2022/04/09 08:05:10;;;;;;;4.03;2.67;;;;;;;24.34;25.45;100032.45;1768075;81;20897;-84
2022/04/09 08:07:39;;;;;;;3.75;2.22;;;;;;;24.28;25.77;100036.43;1768147;81;20961;-83
2022/04/09 08:10:06;;;;;;;2.80;1.60;;;;;;;24.03;26.06;100034.71;1769102;81;20920;-83
2022/04/09 08:12:35;;;;;;;1.87;1.65;;;;;;;23.79;26.24;100026.91;1768246;80;21351;-84
2022/04/09 08:15:04;;;;;;;2.83;1.87;;;;;;;23.63;26.47;100030.32;1768127;81;20920;-83
2022/04/09 08:17:31;;;;;;;2.80;2.00;;;;;;;23.62;25.83;100020.13;1768208;81;20940;-84
2022/04/09 08:20:00;;;;;;;5.40;2.45;;;;;;;23.66;25.86;100013.89;1768174;81;21003;-84
2022/04/09 08:22:27;;;;;;;4.53;3.25;;;;;;;23.64;26.00;100013.25;1768360;80;20999;-83
2022/04/09 08:25:04;;;;;;;5.72;4.35;;;;;;;23.56;25.61;100012.86;1768449;81;21167;-84
2022/04/09 08:27:30;;;;;;;6.45;4.10;;;;;;;23.50;26.61;100021.16;1768422;81;21354;-83
2022/04/09 08:29:56;;;;;;;7.03;4.05;;;;;;;23.64;26.49;100011.40;1768092;81;21394;-83
2022/04/09 08:32:25;;;;;;;6.12;4.42;;;;;;;23.79;26.15;100009.50;1768406;81;20986;-85
2022/04/09 08:34:53;;;;;;;9.25;7.12;;;;;;;24.09;26.10;100008.48;1768238;81;20896;-83
2022/04/09 08:37:25;;;;;;;7.95;5.70;;;;;;;24.41;25.40;100004.34;1768240;81;22124;-83
2022/04/09 08:39:50;;;;;;;8.65;5.67;;;;;;;24.69;25.53;100000.83;1767683;81;21405;-85
2022/04/09 08:42:17;;;;;;;10.55;6.05;;;;;;;25.03;25.50;99998.56;1769746;81;20995;-80
2022/04/09 08:44:44;;;;;;;7.97;5.83;;;;;;;25.42;25.46;99995.70;1769170;81;20901;-83
2022/04/09 08:47:12;;;;;;;12.88;8.63;;;;;;;25.67;24.87;99997.27;1768354;81;21417;-83
2022/04/09 08:49:45;;;;;;;13.43;9.38;;;;;;;25.94;24.08;99988.70;1767298;80;20955;-85
2022/04/09 08:52:12;;;;;;;12.73;9.93;;;;;;;26.08;23.49;99986.00;1783732;80;20892;-84
2022/04/09 08:54:44;;;;;;;10.98;8.08;;;;;;;25.95;23.11;99985.52;1783674;80;20994;-86
2022/04/09 08:57:09;;;;;;;11.88;8.88;;;;;;;25.90;23.10;99986.64;1782941;80;20900;-83
2022/04/09 08:59:36;;;;;;;10.28;9.18;;;;;;;25.83;23.87;99982.58;1771365;80;20900;-86
2022/04/09 09:04:53;;;;;;;7.33;5.35;;;;;;;25.83;22.59;99982.09;1798585;79;22564;-84
2022/04/09 09:07:24;;;;;;;5.05;3.20;;;;;;;25.57;22.29;99982.91;1759049;80;21020;-84
2022/04/09 09:09:52;;;;;;;5.30;2.58;;;;;;;25.38;22.16;99990.42;1758641;81;20903;-82
2022/04/09 09:12:31;;;;;;;3.27;1.50;;;;;;;25.29;21.94;99991.66;1758995;80;20931;-82
2022/04/09 09:15:02;;;;;;;5.53;1.80;;;;;;;25.32;22.18;99995.26;1758728;80;20955;-82
2022/04/09 09:17:31;;;;;;;3.70;2.20;;;;;;;25.26;22.36;99994.23;1758520;81;21381;-85
2022/04/09 09:19:58;;;;;;;6.40;1.65;;;;;;;25.12;22.77;100003.23;1696948;83;20904;-84
2022/04/09 09:22:44;;;;;;;3.58;1.55;;;;;;;25.03;22.21;99993.20;1724928;83;21259;-86
2022/04/09 09:25:13;;;;;;;1.35;0.90;;;;;;;24.86;22.48;99993.27;1725572;83;20875;-85
2022/04/09 09:27:40;;;;;;;1.65;1.55;;;;;;;24.57;23.13;99987.98;1727371;82;20879;-85
2022/04/09 09:30:12;;;;;;;3.65;1.40;;;;;;;24.56;23.22;99989.00;1696352;83;20924;-85
2022/04/09 09:33:04;;;;;;;1.25;0.80;;;;;;;24.58;23.21;99984.78;1725008;83;21345;-84
2022/04/09 09:35:59;;;;;;;2.80;1.02;;;;;;;24.41;22.41;99978.89;1724918;83;21133;-84
2022/04/09 09:38:43;;;;;;;2.52;1.20;;;;;;;24.15;23.33;99972.88;1688400;83;20939;-84
2022/04/09 09:41:26;;;;;;;3.67;1.05;;;;;;;23.98;23.37;99971.01;1724851;83;20915;-84
2022/04/09 09:44:07;;;;;;;2.87;1.37;;;;;;;23.82;23.16;99964.63;1694083;83;21072;-84
2022/04/09 09:46:37;;;;;;;1.57;0.88;;;;;;;23.68;23.54;99963.15;1670810;83;21425;-85
2022/04/09 09:49:12;;;;;;;0.90;0.53;;;;;;;23.49;23.07;99961.13;1725081;82;21357;-84
2022/04/09 09:51:58;;;;;;;2.02;0.88;;;;;;;23.22;23.30;99952.85;1722683;83;21127;-86
2022/04/09 09:54:31;;;;;;;2.37;1.02;;;;;;;22.92;23.87;99962.78;1674331;83;20935;-86
2022/04/09 09:57:04;;;;;;;8.25;1.32;;;;;;;22.59;23.62;99963.72;1725414;83;20978;-84
2022/04/09 09:59:40;;;;;;;3.65;1.15;;;;;;;22.33;24.13;99961.86;1725114;81;20864;-85
2022/04/09 10:02:26;;;;;;;4.25;1.80;;;;;;;22.17;24.17;99962.55;1721237;83;21925;-85
2022/04/09 10:04:53;;;;;;;3.27;1.75;;;;;;;21.94;24.19;99960.27;1696472;83;20962;-85
2022/04/09 10:07:21;;;;;;;3.70;2.27;;;;;;;21.81;24.87;99962.73;1722543;83;20939;-85
2022/04/09 10:09:49;;;;;;;4.95;1.40;;;;;;;21.67;25.30;99963.52;1724965;81;20880;-82
2022/04/09 10:12:20;;;;;;;1.82;1.17;;;;;;;21.56;25.00;99970.10;1723323;82;20991;-85
2022/04/09 10:14:57;;;;;;;2.55;1.90;;;;;;;21.42;24.87;99958.38;1722558;82;20974;-84
2022/04/09 10:17:25;;;;;;;3.47;1.27;;;;;;;21.29;25.13;99951.45;1722301;83;20887;-85
2022/04/09 10:19:58;;;;;;;3.17;1.30;;;;;;;21.18;25.31;99946.53;1721958;83;20935;-85
2022/04/09 10:22:35;;;;;;;5.30;2.40;;;;;;;21.12;25.53;99945.39;1721844;82;20876;-85
2022/04/09 10:25:03;;;;;;;4.53;1.72;;;;;;;21.08;25.81;99938.27;1722255;83;20899;-85
2022/04/09 10:27:44;;;;;;;4.60;1.50;;;;;;;21.10;25.81;99938.92;1722067;83;20932;-84
2022/04/09 10:30:20;;;;;;;6.85;1.75;;;;;;;21.12;26.14;99928.06;1721934;83;21014;-86
2022/04/09 10:32:55;;;;;;;3.00;1.80;;;;;;;21.20;25.86;99920.52;1722074;83;21009;-85
2022/04/09 10:35:40;;;;;;;12.18;3.98;;;;;;;21.26;25.19;99911.30;1721966;83;20899;-84
2022/04/09 10:38:13;;;;;;;4.37;1.50;;;;;;;21.27;25.15;99917.45;1722008;83;20967;-87
2022/04/09 10:40:55;;;;;;;5.15;2.58;;;;;;;21.30;25.18;99918.45;1722106;83;21266;-85
2022/04/09 10:43:28;;;;;;;7.62;2.15;;;;;;;21.39;25.24;99912.04;1722100;82;20864;-85
2022/04/09 10:46:06;;;;;;;;;;;;;;;21.53;24.74;99897.10;1724596;83;21046;-83
2022/04/09 10:48:34;;;;;;;5.67;1.52;;;;;;;21.70;24.69;99885.77;1704087;84;20098;-86
2022/04/09 10:51:06;;;;;;;3.08;1.80;;;;;;;21.93;24.39;99891.84;1704215;84;20942;-85
2022/04/09 10:53:38;;;;;;;4.12;1.37;;;;;;;22.15;24.34;99894.61;1706145;84;21297;-83
2022/04/09 10:56:15;;;;;;;4.42;1.10;;;;;;;22.33;24.27;99890.25;1703554;84;20945;-83
2022/04/09 10:59:16;;;;;;;4.17;1.85;;;;;;;22.30;24.32;99885.29;1703865;84;20905;-84
2022/04/09 11:01:51;;;;;;;3.02;1.52;;;;;;;22.19;24.99;99881.22;1703931;84;20913;-85
2022/04/09 11:07:10;;;;;;;9.38;2.40;;;;;;;21.84;25.91;99875.60;1678983;85;21372;-83
2022/04/09 11:10:00;;;;;;;6.85;3.17;;;;;;;21.74;26.52;99876.36;1743008;81;20980;-83
2022/04/09 11:12:43;;;;;;;5.22;1.65;;;;;;;21.77;26.66;99868.52;1708851;83;20975;-84
2022/04/09 11:15:13;;;;;;;11.10;2.40;;;;;;;21.78;26.83;99869.66;1708731;84;21362;-84
2022/04/09 11:17:43;;;;;;;6.87;2.58;;;;;;;21.89;26.97;99860.36;1708807;84;21346;-85
2022/04/09 11:20:16;;;;;;;7.00;3.27;;;;;;;22.04;27.22;99855.84;1708974;82;21224;-85
2022/04/09 11:22:51;;;;;;;4.55;2.30;;;;;;;22.24;27.12;99856.64;1708704;84;20880;-85
2022/04/09 11:25:27;;;;;;;5.20;2.42;;;;;;;22.40;27.31;99854.27;1708997;84;21397;-85
2022/04/09 11:28:17;;;;;;;4.45;2.37;;;;;;;22.59;27.69;99837.62;1708920;84;21386;-84
2022/04/09 11:31:02;;;;;;;4.42;2.45;;;;;;;22.67;27.83;99846.02;1708989;82;20939;-84
2022/04/09 11:33:29;;;;;;;5.42;2.02;;;;;;;22.82;27.95;99832.61;1711133;83;21850;-85
2022/04/09 11:35:57;;;;;;;7.90;2.42;;;;;;;23.01;27.96;99815.95;1708939;84;20955;-84
2022/04/09 11:38:27;;;;;;;6.78;1.87;;;;;;;23.19;27.69;99823.50;1709748;84;21493;-86
2022/04/09 11:40:55;;;;;;;5.40;2.45;;;;;;;23.45;27.84;99818.83;1709340;82;20896;-82
2022/04/09 11:43:22;;;;;;;6.22;2.27;;;;;;;23.61;27.96;99816.88;1709060;82;21393;-85
2022/04/09 11:45:50;;;;;;;4.12;2.08;;;;;;;23.57;28.18;99816.45;1709030;84;21353;-84
2022/04/09 11:48:19;;;;;;;7.22;2.83;;;;;;;23.49;28.46;99795.19;1708953;84;20900;-87